createdAt,value
2023-08-17T00:02:57.692Z,20.86
2023-08-17T00:05:59.760Z,20.83
2023-08-17T00:09:01.373Z,20.78
2023-08-17T00:12:03.827Z,20.75
2023-08-17T00:15:07.218Z,20.73
2023-08-17T00:18:09.242Z,20.72
2023-08-17T00:21:11.314Z,20.67
2023-08-17T00:24:13.392Z,20.64
2023-08-17T00:27:15.430Z,20.61
2023-08-17T00:30:19.075Z,20.58
2023-08-17T00:33:21.373Z,20.56
2023-08-17T00:36:23.488Z,20.53
2023-08-17T00:39:25.455Z,20.50
2023-08-17T00:42:27.825Z,20.46
2023-08-17T00:45:30.400Z,20.42
2023-08-17T00:48:33.229Z,20.37
2023-08-17T00:51:35.442Z,20.32
2023-08-17T00:54:39.326Z,20.27
2023-08-17T00:57:42.894Z,20.24
2023-08-17T01:00:45.250Z,20.19
2023-08-17T01:03:47.363Z,20.14
2023-08-17T01:06:51.696Z,20.10
2023-08-17T01:09:54.592Z,20.06
2023-08-17T01:13:06.995Z,20.01
2023-08-17T01:16:16.574Z,19.96
2023-08-17T01:19:28.098Z,19.92
2023-08-17T01:22:31.510Z,19.95
2023-08-17T01:25:40.564Z,19.93
2023-08-17T01:28:46.831Z,19.95
2023-08-17T01:31:59.399Z,19.94
2023-08-17T01:35:30.188Z,19.89
2023-08-17T01:38:34.495Z,19.87
2023-08-17T01:41:38.781Z,19.83
2023-08-17T01:44:41.001Z,19.81
2023-08-17T01:47:43.149Z,19.78
2023-08-17T01:50:45.231Z,19.75
2023-08-17T01:53:48.106Z,19.73
2023-08-17T01:56:49.768Z,19.70
2023-08-17T01:59:53.263Z,19.70
2023-08-17T02:02:55.341Z,19.69
2023-08-17T02:05:57.958Z,19.66
2023-08-17T02:09:00.603Z,19.66
2023-08-17T02:12:02.708Z,19.66
2023-08-17T02:15:05.140Z,19.64
2023-08-17T02:18:07.450Z,19.63
2023-08-17T02:21:10.801Z,19.58
2023-08-17T02:24:15.532Z,19.55
2023-08-17T02:27:18.569Z,19.56
2023-08-17T02:30:20.739Z,19.55
2023-08-17T02:33:23.384Z,19.52
2023-08-17T02:36:25.749Z,19.48
2023-08-17T02:39:29.913Z,19.44
2023-08-17T02:42:32.346Z,19.40
2023-08-17T02:45:35.786Z,19.40
2023-08-17T02:48:37.880Z,19.37
2023-08-17T02:51:39.944Z,19.36
2023-08-17T02:54:41.958Z,19.32
2023-08-17T02:57:45.916Z,19.31
2023-08-17T03:00:48.022Z,19.25
2023-08-17T03:03:50.121Z,19.23
2023-08-17T03:06:52.180Z,19.20
2023-08-17T03:09:54.156Z,19.16
2023-08-17T03:12:56.223Z,19.15
2023-08-17T03:15:58.291Z,19.11
2023-08-17T03:19:00.890Z,19.09
2023-08-17T03:22:03.390Z,19.07
2023-08-17T03:25:11.584Z,19.05
2023-08-17T03:28:14.361Z,19.01
2023-08-17T03:31:16.502Z,18.99
2023-08-17T03:34:18.217Z,18.95
2023-08-17T03:37:20.372Z,18.97
2023-08-17T03:40:22.137Z,18.96
2023-08-17T03:43:24.353Z,18.97
2023-08-17T03:46:26.534Z,18.96
2023-08-17T03:49:29.563Z,18.98
2023-08-17T03:52:32.095Z,18.98
2023-08-17T03:55:33.810Z,18.99
2023-08-17T03:58:37.310Z,18.98
2023-08-17T04:01:40.660Z,18.96
2023-08-17T04:04:44.355Z,18.96
2023-08-17T04:07:46.740Z,19.00
2023-08-17T04:10:48.885Z,18.96
2023-08-17T04:13:50.976Z,18.99
2023-08-17T04:16:57.896Z,18.93
2023-08-17T04:19:59.950Z,18.99
2023-08-17T04:23:02.905Z,18.99
2023-08-17T04:26:04.521Z,19.00
2023-08-17T04:29:07.108Z,19.00
2023-08-17T04:32:09.265Z,19.01
2023-08-17T04:35:11.987Z,19.00
2023-08-17T04:38:15.372Z,19.01
2023-08-17T04:41:19.062Z,18.97
2023-08-17T04:44:20.713Z,18.99
2023-08-17T04:47:22.850Z,18.99
2023-08-17T04:50:24.980Z,18.98
2023-08-17T04:53:28.944Z,18.99
2023-08-17T04:56:31.119Z,18.98
2023-08-17T04:59:33.253Z,18.97
2023-08-17T05:02:35.566Z,18.93
2023-08-17T05:05:38.386Z,19.00
2023-08-17T05:08:44.133Z,18.98
2023-08-17T05:11:46.933Z,19.01
2023-08-17T05:14:48.989Z,19.04
2023-08-17T05:17:51.326Z,19.02
2023-08-17T05:20:53.467Z,19.05
2023-08-17T05:23:55.551Z,19.05
2023-08-17T05:26:57.588Z,19.06
2023-08-17T05:29:59.664Z,19.06
2023-08-17T05:33:01.773Z,19.13
2023-08-17T05:36:04.643Z,19.16
2023-08-17T05:39:07.263Z,19.21
2023-08-17T05:42:11.043Z,19.19
2023-08-17T05:45:13.065Z,19.24
2023-08-17T05:48:15.132Z,19.27
2023-08-17T05:51:17.450Z,19.30
2023-08-17T05:54:20.037Z,19.33
2023-08-17T05:57:22.563Z,19.36
2023-08-17T06:00:24.597Z,19.41
2023-08-17T06:03:26.738Z,19.46
2023-08-17T06:06:29.012Z,19.52
2023-08-17T06:09:30.937Z,19.57
2023-08-17T06:12:33.065Z,19.64
2023-08-17T06:15:35.191Z,19.70
2023-08-17T06:18:37.399Z,19.76
2023-08-17T06:21:39.540Z,19.83
2023-08-17T06:24:41.728Z,19.87
2023-08-17T06:27:57.319Z,19.99
2023-08-17T06:31:01.394Z,20.07
2023-08-17T06:34:06.549Z,20.13
2023-08-17T06:37:13.240Z,20.21
2023-08-17T06:40:17.231Z,20.30
2023-08-17T06:43:20.939Z,20.37
2023-08-17T06:46:23.462Z,20.42
2023-08-17T06:49:29.838Z,20.52
2023-08-17T06:52:31.980Z,20.56
2023-08-17T06:55:34.138Z,20.65
2023-08-17T06:58:36.428Z,20.72
2023-08-17T07:01:38.504Z,20.81
2023-08-17T07:04:40.860Z,20.88
2023-08-17T07:07:43.880Z,20.95
2023-08-17T07:10:45.950Z,21.02
2023-08-17T07:13:48.241Z,21.09
2023-08-17T07:16:49.987Z,21.17
2023-08-17T07:20:07.670Z,21.23
2023-08-17T07:23:14.609Z,21.33
2023-08-17T07:26:16.774Z,21.39
2023-08-17T07:29:18.457Z,21.48
2023-08-17T07:32:20.283Z,21.54
2023-08-17T07:35:22.368Z,21.62
2023-08-17T07:38:24.736Z,21.67
2023-08-17T07:41:26.900Z,21.77
2023-08-17T07:44:30.000Z,21.81
2023-08-17T07:47:31.893Z,21.93
2023-08-17T07:50:34.219Z,22.01
2023-08-17T07:53:36.252Z,22.08
2023-08-17T07:56:38.264Z,22.18
2023-08-17T07:59:40.337Z,22.27
2023-08-17T08:02:42.017Z,22.38
2023-08-17T08:05:44.677Z,22.48
2023-08-17T08:08:47.280Z,22.60
2023-08-17T08:11:49.321Z,22.66
2023-08-17T08:14:52.263Z,22.73
2023-08-17T08:17:55.013Z,22.80
2023-08-17T08:20:57.093Z,22.85
2023-08-17T08:23:59.152Z,22.90
2023-08-17T08:27:02.559Z,22.93
2023-08-17T08:30:04.456Z,22.99
2023-08-17T08:33:07.036Z,23.05
2023-08-17T08:36:08.686Z,23.13
2023-08-17T08:39:11.881Z,23.23
2023-08-17T08:42:13.586Z,23.30
2023-08-17T08:45:16.102Z,23.33
2023-08-17T08:48:20.295Z,23.37
2023-08-17T08:51:29.837Z,23.43
2023-08-17T08:54:37.946Z,23.47
2023-08-17T08:57:42.510Z,23.53
2023-08-17T09:00:47.665Z,23.59
2023-08-17T09:03:50.569Z,23.65
2023-08-17T09:06:52.946Z,23.72
2023-08-17T09:09:55.052Z,23.81
2023-08-17T09:12:57.851Z,23.90
2023-08-17T09:19:09.874Z,24.10
2023-08-17T09:22:11.544Z,24.21
2023-08-17T09:25:23.761Z,24.31
2023-08-17T09:28:25.906Z,24.39
2023-08-17T09:31:27.703Z,24.48
2023-08-17T09:34:32.911Z,24.57
2023-08-17T09:37:35.662Z,24.68
2023-08-17T09:40:38.251Z,24.81
2023-08-17T09:43:40.405Z,24.93
2023-08-17T09:46:45.684Z,24.99
2023-08-17T09:49:56.388Z,25.11
2023-08-17T09:52:58.924Z,25.24
2023-08-17T09:56:01.634Z,25.34
2023-08-17T09:59:03.843Z,25.46
2023-08-17T10:02:21.544Z,25.53
2023-08-17T10:05:24.353Z,25.59
2023-08-17T10:08:31.426Z,25.66
2023-08-17T10:11:40.087Z,25.78
2023-08-17T10:14:50.712Z,25.79
2023-08-17T10:18:18.595Z,25.86
2023-08-17T10:21:37.371Z,25.95
2023-08-17T10:24:46.760Z,25.97
2023-08-17T10:27:50.202Z,26.07
2023-08-17T10:30:52.875Z,26.16
2023-08-17T10:33:58.005Z,26.29
2023-08-17T10:37:01.321Z,26.38
2023-08-17T10:40:04.741Z,26.48
2023-08-17T10:43:07.195Z,26.53
2023-08-17T10:46:19.179Z,26.57
2023-08-17T10:49:28.820Z,26.59
2023-08-17T10:52:39.247Z,26.66
2023-08-17T10:55:43.229Z,26.71
2023-08-17T10:58:45.623Z,26.78
2023-08-17T11:01:52.941Z,26.83
2023-08-17T11:04:54.676Z,26.93
2023-08-17T11:07:56.998Z,27.02
2023-08-17T11:11:13.819Z,27.10
2023-08-17T11:14:15.825Z,27.13
2023-08-17T11:17:17.848Z,27.17
2023-08-17T11:20:20.258Z,27.20
2023-08-17T11:23:26.124Z,27.22
2023-08-17T11:26:28.791Z,27.27
2023-08-17T11:29:33.334Z,27.29
2023-08-17T11:32:36.065Z,27.35
2023-08-17T11:35:38.296Z,27.40
2023-08-17T11:38:43.031Z,27.44
2023-08-17T11:41:45.669Z,27.49
2023-08-17T11:44:47.736Z,27.55
2023-08-17T11:47:50.693Z,27.59
2023-08-17T11:50:54.063Z,27.64
2023-08-17T11:54:00.189Z,27.69
2023-08-17T11:57:05.366Z,27.75
2023-08-17T12:00:08.776Z,27.80
2023-08-17T12:03:16.234Z,27.86
2023-08-17T12:06:18.643Z,27.97
2023-08-17T12:09:22.522Z,28.05
2023-08-17T12:12:25.036Z,28.08
2023-08-17T12:15:33.299Z,28.14
2023-08-17T12:18:35.656Z,28.20
2023-08-17T12:21:38.089Z,28.32
2023-08-17T12:24:40.287Z,28.42
2023-08-17T12:27:42.851Z,28.45
2023-08-17T12:30:45.078Z,28.51
2023-08-17T12:33:47.172Z,28.58
2023-08-17T12:36:50.214Z,28.63
2023-08-17T12:39:52.380Z,28.74
2023-08-17T12:42:54.538Z,28.81
2023-08-17T12:45:56.567Z,28.90
2023-08-17T12:48:58.626Z,28.93
2023-08-17T12:52:00.714Z,28.95
2023-08-17T12:55:02.951Z,28.95
2023-08-17T12:58:06.083Z,28.97
2023-08-17T13:01:08.268Z,28.91
2023-08-17T13:04:10.569Z,28.89
2023-08-17T13:07:12.859Z,28.88
2023-08-17T13:10:15.016Z,28.95
2023-08-17T13:13:17.136Z,28.99
2023-08-17T13:16:19.670Z,29.04
2023-08-17T13:19:21.379Z,29.09
2023-08-17T13:22:23.090Z,29.17
2023-08-17T13:25:24.807Z,29.23
2023-08-17T13:28:26.901Z,29.27
2023-08-17T13:31:28.950Z,29.32
2023-08-17T13:34:31.020Z,29.35
2023-08-17T13:37:33.080Z,29.39
2023-08-17T13:40:35.812Z,29.51
2023-08-17T13:43:37.858Z,29.60
2023-08-17T13:46:40.639Z,29.73
2023-08-17T13:49:42.934Z,29.93
2023-08-17T13:52:45.495Z,30.15
2023-08-17T13:55:47.939Z,30.42
2023-08-17T13:58:49.604Z,30.59
2023-08-17T14:01:51.773Z,30.63
2023-08-17T14:04:53.443Z,30.67
2023-08-17T14:07:56.018Z,30.67
2023-08-17T14:10:58.072Z,30.56
2023-08-17T14:14:00.324Z,30.52
2023-08-17T14:17:03.790Z,30.45
2023-08-17T14:20:06.280Z,30.36
2023-08-17T14:23:08.345Z,30.31
2023-08-17T14:26:10.430Z,30.17
2023-08-17T14:29:12.548Z,30.06
2023-08-17T14:32:14.156Z,29.97
2023-08-17T14:35:16.289Z,29.87
2023-08-17T14:38:18.769Z,29.79
2023-08-17T14:41:29.849Z,29.69
2023-08-17T14:44:34.706Z,29.56
2023-08-17T14:47:39.089Z,29.50
2023-08-17T14:50:41.067Z,29.42
2023-08-17T14:53:42.824Z,29.37
2023-08-17T14:56:45.822Z,29.32
2023-08-17T14:59:48.217Z,29.28
2023-08-17T15:02:51.064Z,29.20
2023-08-17T15:05:53.364Z,29.10
2023-08-17T15:08:56.243Z,29.04
2023-08-17T15:11:58.463Z,28.95
2023-08-17T15:15:00.552Z,28.83
2023-08-17T15:18:02.710Z,28.43
2023-08-17T15:21:04.401Z,27.43
2023-08-17T15:24:06.615Z,26.79
2023-08-17T15:27:08.759Z,26.39
2023-08-17T15:30:11.147Z,25.83
2023-08-17T15:33:13.201Z,25.32
2023-08-17T15:36:15.644Z,24.85
2023-08-17T15:39:17.274Z,24.50
2023-08-17T15:42:18.871Z,24.30
2023-08-17T15:45:21.727Z,24.13
2023-08-17T15:48:23.946Z,24.03
2023-08-17T15:51:28.653Z,23.97
2023-08-17T15:54:36.578Z,23.98
2023-08-17T15:57:39.703Z,23.93
2023-08-17T16:00:41.800Z,23.82
2023-08-17T16:03:45.863Z,23.70
2023-08-17T16:06:47.536Z,23.53
2023-08-17T16:09:49.187Z,23.29
2023-08-17T16:12:51.603Z,23.06
2023-08-17T16:15:54.475Z,22.81
2023-08-17T16:18:56.669Z,22.59
2023-08-17T16:21:58.700Z,22.38
2023-08-17T16:25:00.763Z,22.18
2023-08-17T16:28:03.007Z,21.92
2023-08-17T16:31:05.722Z,21.69
2023-08-17T16:34:07.989Z,21.56
2023-08-17T16:37:10.704Z,21.42
2023-08-17T16:40:20.905Z,21.18
2023-08-17T16:43:34.711Z,20.95
2023-08-17T16:46:36.806Z,20.80
2023-08-17T16:49:38.820Z,20.70
2023-08-17T16:52:40.852Z,20.63
2023-08-17T16:55:44.876Z,20.57
2023-08-17T16:58:48.103Z,20.52
2023-08-17T17:01:50.204Z,20.51
2023-08-17T17:04:52.281Z,20.49
2023-08-17T17:07:57.533Z,20.43
2023-08-17T17:11:00.718Z,20.43
2023-08-17T17:14:02.789Z,20.33
2023-08-17T17:17:04.847Z,20.26
2023-08-17T17:20:07.598Z,20.17
2023-08-17T17:23:09.677Z,20.16
2023-08-17T17:26:11.772Z,20.13
2023-08-17T17:29:13.497Z,20.13
2023-08-17T17:32:15.878Z,20.13
2023-08-17T17:35:17.461Z,20.11
2023-08-17T17:38:20.897Z,20.07
2023-08-17T17:41:22.504Z,20.10
2023-08-17T17:44:24.616Z,20.08
2023-08-17T17:47:27.343Z,20.07
2023-08-17T17:50:29.855Z,20.06
2023-08-17T17:53:31.996Z,20.04
2023-08-17T17:56:41.177Z,20.03
2023-08-17T17:59:46.167Z,20.05
2023-08-17T18:02:47.870Z,20.03
2023-08-17T18:05:50.056Z,19.98
2023-08-17T18:08:53.663Z,19.98
2023-08-17T18:11:56.348Z,19.89
2023-08-17T18:14:58.415Z,19.90
2023-08-17T18:18:00.846Z,19.84
2023-08-17T18:21:02.577Z,19.79
2023-08-17T18:24:04.516Z,19.78
2023-08-17T18:27:06.169Z,19.76
2023-08-17T18:30:09.446Z,19.74
2023-08-17T18:33:11.081Z,19.71
2023-08-17T18:36:13.414Z,19.69
2023-08-17T18:39:15.628Z,19.67
2023-08-17T18:42:17.631Z,19.61
2023-08-17T18:45:20.992Z,19.59
2023-08-17T18:48:23.064Z,19.54
2023-08-17T18:51:25.070Z,19.51
2023-08-17T18:54:27.152Z,19.51
2023-08-17T18:57:30.711Z,19.48
2023-08-17T19:00:34.006Z,19.49
2023-08-17T19:03:35.795Z,19.49
2023-08-17T19:06:38.038Z,19.49
2023-08-17T19:09:40.054Z,19.47
2023-08-17T19:12:42.014Z,19.46
2023-08-17T19:15:44.062Z,19.46
2023-08-17T19:18:46.050Z,19.43
2023-08-17T19:21:48.334Z,19.42
2023-08-17T19:24:49.940Z,19.41
2023-08-17T19:27:52.186Z,19.38
2023-08-17T19:30:53.793Z,19.39
2023-08-17T19:33:56.228Z,19.37
2023-08-17T19:36:59.429Z,19.36
2023-08-17T19:40:01.227Z,19.36
2023-08-17T19:43:03.915Z,19.38
2023-08-17T19:46:05.949Z,19.37
2023-08-17T19:49:07.987Z,19.37
2023-08-17T19:52:09.710Z,19.39
2023-08-17T19:55:14.084Z,19.38
2023-08-17T19:58:16.234Z,19.37
2023-08-17T20:01:18.638Z,19.34
2023-08-17T20:04:20.789Z,19.32
2023-08-17T20:07:22.844Z,19.32
2023-08-17T20:10:25.029Z,19.34
2023-08-17T20:13:27.068Z,19.34
2023-08-17T20:16:28.758Z,19.35
2023-08-17T20:19:33.612Z,19.33
2023-08-17T20:22:35.726Z,19.31
2023-08-17T20:25:37.518Z,19.31
2023-08-17T20:28:40.124Z,19.32
2023-08-17T20:31:42.592Z,19.32
2023-08-17T20:34:44.650Z,19.30
2023-08-17T20:37:46.680Z,19.31
2023-08-17T20:40:49.206Z,19.31
2023-08-17T20:43:53.837Z,19.28
2023-08-17T20:46:56.175Z,19.29
2023-08-17T20:49:59.639Z,19.28
2023-08-17T20:53:02.893Z,19.27
2023-08-17T20:56:05.100Z,19.26
2023-08-17T20:59:07.242Z,19.23
2023-08-17T21:02:10.199Z,19.20
2023-08-17T21:05:12.254Z,19.19
2023-08-17T21:08:14.528Z,19.18
2023-08-17T21:11:17.062Z,19.13
2023-08-17T21:14:19.161Z,19.09
2023-08-17T21:17:21.258Z,19.05
2023-08-17T21:20:23.395Z,19.02
2023-08-17T21:23:25.805Z,19.00
2023-08-17T21:26:27.811Z,18.95
2023-08-17T21:29:30.532Z,18.88
2023-08-17T21:32:32.567Z,18.82
2023-08-17T21:35:36.785Z,18.83
2023-08-17T21:38:38.399Z,18.83
2023-08-17T21:41:41.602Z,18.78
2023-08-17T21:44:43.702Z,18.76
2023-08-17T21:47:45.753Z,18.77
2023-08-17T21:50:47.797Z,18.73
2023-08-17T21:53:49.914Z,18.73
2023-08-17T21:56:51.549Z,18.71
2023-08-17T21:59:53.956Z,18.68
2023-08-17T22:02:56.080Z,18.65
2023-08-17T22:06:01.088Z,18.60
2023-08-17T22:09:03.241Z,18.60
2023-08-17T22:12:05.596Z,18.57
2023-08-17T22:15:08.581Z,18.54
2023-08-17T22:18:10.702Z,18.51
2023-08-17T22:21:12.786Z,18.50
2023-08-17T22:24:14.398Z,18.48
2023-08-17T22:27:17.236Z,18.46
2023-08-17T22:30:19.050Z,18.43
2023-08-17T22:33:21.072Z,18.41
2023-08-17T22:36:23.860Z,18.37
2023-08-17T22:39:25.544Z,18.36
2023-08-17T22:42:27.972Z,18.33
2023-08-17T22:45:29.992Z,18.30
2023-08-17T22:48:32.158Z,18.27
2023-08-17T22:51:34.396Z,18.24
2023-08-17T22:54:36.494Z,18.21
2023-08-17T22:57:38.775Z,18.18
2023-08-17T23:00:40.537Z,18.14
2023-08-17T23:03:43.450Z,18.11
2023-08-17T23:06:45.605Z,18.13
2023-08-17T23:09:47.997Z,18.10
2023-08-17T23:12:49.611Z,18.07
2023-08-17T23:15:51.281Z,18.03
2023-08-17T23:18:52.917Z,18.01
2023-08-17T23:21:54.730Z,17.99
2023-08-17T23:24:56.828Z,17.95
2023-08-17T23:27:58.906Z,17.95
2023-08-17T23:31:01.069Z,17.89
2023-08-17T23:34:02.897Z,17.89
2023-08-17T23:37:05.036Z,17.87
2023-08-17T23:40:08.329Z,17.85
2023-08-17T23:43:10.394Z,17.83
2023-08-17T23:46:12.634Z,17.81
2023-08-17T23:49:17.136Z,17.77
2023-08-17T23:52:18.745Z,17.75
2023-08-17T23:55:21.384Z,17.72
2023-08-17T23:58:23.125Z,17.70
